createdAt,value
2022-10-30T00:02:22.345Z,100.00
2022-10-30T00:04:50.221Z,100.00
2022-10-30T00:07:18.025Z,100.00
2022-10-30T00:09:45.867Z,100.00
2022-10-30T00:12:15.082Z,100.00
2022-10-30T00:14:42.966Z,100.00
2022-10-30T00:17:10.830Z,100.00
2022-10-30T00:19:38.690Z,100.00
2022-10-30T00:24:33.407Z,100.00
2022-10-30T00:27:01.278Z,100.00
2022-10-30T00:29:32.499Z,100.00
2022-10-30T00:32:00.323Z,100.00
2022-10-30T00:34:28.317Z,100.00
2022-10-30T00:36:56.129Z,100.00
2022-10-30T00:39:23.971Z,100.00
2022-10-30T00:41:52.423Z,100.00
2022-10-30T00:44:37.704Z,100.00
2022-10-30T00:47:12.764Z,100.00
2022-10-30T00:49:54.664Z,100.00
2022-10-30T00:52:25.310Z,100.00
2022-10-30T00:54:58.358Z,100.00
2022-10-30T00:57:27.503Z,100.00
2022-10-30T00:59:59.649Z,100.00
2022-10-30T01:02:28.806Z,100.00
2022-10-30T01:04:57.121Z,100.00
2022-10-30T01:07:25.214Z,100.00
2022-10-30T01:09:53.258Z,100.00
2022-10-30T01:12:48.112Z,100.00
2022-10-30T01:15:18.998Z,100.00
2022-10-30T01:18:14.367Z,100.00
2022-10-30T01:21:08.178Z,100.00
2022-10-30T01:23:43.965Z,100.00
2022-10-30T01:26:19.908Z,100.00
2022-10-30T01:29:01.026Z,100.00
2022-10-30T01:31:45.241Z,100.00
2022-10-30T01:34:19.913Z,100.00
2022-10-30T01:36:55.919Z,100.00
2022-10-30T01:39:26.871Z,100.00
2022-10-30T01:41:54.834Z,100.00
2022-10-30T01:44:31.713Z,100.00
2022-10-30T01:47:13.978Z,100.00
2022-10-30T01:50:10.742Z,100.00
2022-10-30T01:53:31.395Z,100.00
2022-10-30T01:56:25.455Z,100.00
2022-10-30T01:59:04.836Z,100.00
2022-10-30T02:01:35.616Z,100.00
2022-10-30T02:04:11.744Z,100.00
2022-10-30T02:06:43.400Z,100.00
2022-10-30T02:09:16.362Z,100.00
2022-10-30T02:11:50.498Z,100.00
2022-10-30T02:14:22.875Z,100.00
2022-10-30T02:16:53.396Z,100.00
2022-10-30T02:19:22.980Z,100.00
2022-10-30T02:21:52.602Z,100.00
2022-10-30T02:24:20.751Z,100.00
2022-10-30T02:26:48.561Z,100.00
2022-10-30T02:29:18.392Z,100.00
2022-10-30T02:31:49.522Z,100.00
2022-10-30T02:34:17.653Z,100.00
2022-10-30T02:36:47.533Z,100.00
2022-10-30T02:39:18.001Z,100.00
2022-10-30T02:41:51.640Z,100.00
2022-10-30T02:44:19.578Z,100.00
2022-10-30T02:46:48.761Z,100.00
2022-10-30T02:49:16.506Z,100.00
2022-10-30T02:51:45.034Z,100.00
2022-10-30T02:54:13.892Z,100.00
2022-10-30T02:56:43.463Z,100.00
2022-10-30T02:59:15.002Z,100.00
2022-10-30T03:01:42.964Z,100.00
2022-10-30T03:04:10.889Z,100.00
2022-10-30T03:06:40.904Z,100.00
2022-10-30T03:09:14.057Z,100.00
2022-10-30T03:11:44.352Z,100.00
2022-10-30T03:14:12.348Z,100.00
2022-10-30T03:16:40.247Z,100.00
2022-10-30T03:19:08.282Z,100.00
2022-10-30T03:21:36.312Z,100.00
2022-10-30T03:24:04.308Z,100.00
2022-10-30T03:26:34.227Z,100.00
2022-10-30T03:29:08.246Z,100.00
2022-10-30T03:31:37.068Z,100.00
2022-10-30T03:34:34.344Z,100.00
2022-10-30T03:37:06.383Z,100.00
2022-10-30T03:39:35.052Z,100.00
2022-10-30T03:42:03.928Z,100.00
2022-10-30T03:44:33.070Z,100.00
2022-10-30T03:47:01.060Z,100.00
2022-10-30T03:49:35.166Z,100.00
2022-10-30T03:52:07.838Z,100.00
2022-10-30T03:54:35.919Z,100.00
2022-10-30T03:57:03.689Z,100.00
2022-10-30T03:59:41.753Z,100.00
2022-10-30T04:02:27.895Z,100.00
2022-10-30T04:04:55.745Z,100.00
2022-10-30T04:07:24.021Z,100.00
2022-10-30T04:09:52.020Z,100.00
2022-10-30T04:12:19.868Z,100.00
2022-10-30T04:14:49.082Z,100.00
2022-10-30T04:17:16.988Z,100.00
2022-10-30T04:19:44.860Z,100.00
2022-10-30T04:22:12.688Z,100.00
2022-10-30T04:24:40.629Z,100.00
2022-10-30T04:27:09.724Z,100.00
2022-10-30T04:29:38.889Z,100.00
2022-10-30T04:32:08.727Z,100.00
2022-10-30T04:34:36.584Z,100.00
2022-10-30T04:37:05.159Z,100.00
2022-10-30T04:39:32.956Z,100.00
2022-10-30T04:42:09.874Z,100.00
2022-10-30T04:44:37.665Z,100.00
2022-10-30T04:47:05.535Z,100.00
2022-10-30T04:49:34.621Z,100.00
2022-10-30T04:52:02.416Z,100.00
2022-10-30T04:54:30.257Z,100.00
2022-10-30T04:56:58.163Z,100.00
2022-10-30T04:59:26.220Z,100.00
2022-10-30T05:01:55.385Z,100.00
2022-10-30T05:04:23.387Z,100.00
2022-10-30T05:06:52.579Z,100.00
2022-10-30T05:09:20.373Z,100.00
2022-10-30T05:11:49.054Z,100.00
2022-10-30T05:14:16.948Z,100.00
2022-10-30T05:16:45.571Z,100.00
2022-10-30T05:19:13.303Z,100.00
2022-10-30T05:21:46.140Z,100.00
2022-10-30T05:24:16.087Z,100.00
2022-10-30T05:26:46.084Z,100.00
2022-10-30T05:29:14.862Z,100.00
2022-10-30T05:31:42.847Z,100.00
2022-10-30T05:34:16.841Z,100.00
2022-10-30T05:36:50.044Z,100.00
2022-10-30T05:39:20.063Z,100.00
2022-10-30T05:41:50.597Z,100.00
2022-10-30T05:44:34.277Z,100.00
2022-10-30T05:47:08.648Z,100.00
2022-10-30T05:49:36.602Z,100.00
2022-10-30T05:52:07.707Z,100.00
2022-10-30T05:54:37.916Z,100.00
2022-10-30T05:57:11.063Z,100.00
2022-10-30T05:59:40.564Z,100.00
2022-10-30T06:02:08.866Z,100.00
2022-10-30T06:04:37.353Z,100.00
2022-10-30T06:07:11.237Z,100.00
2022-10-30T06:09:40.422Z,100.00
2022-10-30T06:12:24.286Z,100.00
2022-10-30T06:15:02.719Z,100.00
2022-10-30T06:17:32.107Z,100.00
2022-10-30T06:20:18.387Z,100.00
2022-10-30T06:23:07.779Z,100.00
2022-10-30T06:25:52.533Z,100.00
2022-10-30T06:28:38.784Z,100.00
2022-10-30T06:31:09.941Z,100.00
2022-10-30T06:33:39.090Z,100.00
2022-10-30T06:36:07.287Z,100.00
2022-10-30T06:38:35.198Z,100.00
2022-10-30T06:41:04.609Z,100.00
2022-10-30T06:43:52.233Z,100.00
2022-10-30T06:46:27.017Z,100.00
2022-10-30T06:49:08.277Z,100.00
2022-10-30T06:51:36.287Z,100.00
2022-10-30T06:54:04.681Z,100.00
2022-10-30T06:56:42.641Z,100.00
2022-10-30T06:59:11.358Z,100.00
2022-10-30T07:02:00.494Z,100.00
2022-10-30T07:04:39.951Z,100.00
2022-10-30T07:07:08.678Z,100.00
2022-10-30T07:09:36.543Z,100.00
2022-10-30T07:12:07.204Z,100.00
2022-10-30T07:14:55.316Z,100.00
2022-10-30T07:17:53.117Z,100.00
2022-10-30T07:20:24.373Z,100.00
2022-10-30T07:22:52.421Z,100.00
2022-10-30T07:25:20.429Z,100.00
2022-10-30T07:28:05.852Z,100.00
2022-10-30T07:30:37.424Z,100.00
2022-10-30T07:33:31.387Z,100.00
2022-10-30T07:36:21.306Z,100.00
2022-10-30T07:38:54.210Z,100.00
2022-10-30T07:41:53.053Z,100.00
2022-10-30T07:44:44.924Z,100.00
2022-10-30T07:47:19.872Z,100.00
2022-10-30T07:50:07.004Z,100.00
2022-10-30T07:52:35.000Z,100.00
2022-10-30T07:55:03.467Z,100.00
2022-10-30T07:57:51.624Z,100.00
2022-10-30T08:00:26.962Z,100.00
2022-10-30T08:03:04.370Z,100.00
2022-10-30T08:05:39.619Z,100.00
2022-10-30T08:08:10.569Z,100.00
2022-10-30T08:10:38.805Z,100.00
2022-10-30T08:13:07.061Z,100.00
2022-10-30T08:15:39.375Z,100.00
2022-10-30T08:18:07.274Z,100.00
2022-10-30T08:20:38.408Z,100.00
2022-10-30T08:23:06.344Z,100.00
2022-10-30T08:25:34.718Z,100.00
2022-10-30T08:28:05.061Z,100.00
2022-10-30T08:30:38.552Z,100.00
2022-10-30T08:33:14.369Z,100.00
2022-10-30T08:35:58.735Z,100.00
2022-10-30T08:38:28.369Z,100.00
2022-10-30T08:41:13.907Z,100.00
2022-10-30T08:43:46.148Z,100.00
2022-10-30T08:46:15.588Z,100.00
2022-10-30T08:48:43.832Z,100.00
2022-10-30T08:51:11.765Z,100.00
2022-10-30T08:53:44.864Z,100.00
2022-10-30T08:56:15.426Z,100.00
2022-10-30T08:58:51.849Z,100.00
2022-10-30T09:01:21.141Z,100.00
2022-10-30T09:04:08.089Z,100.00
2022-10-30T09:07:01.905Z,100.00
2022-10-30T09:09:48.371Z,100.00
2022-10-30T09:12:17.311Z,100.00
2022-10-30T09:14:47.060Z,100.00
2022-10-30T09:17:16.257Z,100.00
2022-10-30T09:22:26.011Z,100.00
2022-10-30T09:24:53.952Z,100.00
2022-10-30T09:27:47.368Z,100.00
2022-10-30T09:30:16.142Z,100.00
2022-10-30T09:32:55.141Z,100.00
2022-10-30T09:35:27.627Z,100.00
2022-10-30T09:37:56.064Z,100.00
2022-10-30T09:40:40.671Z,100.00
2022-10-30T09:43:19.850Z,100.00
2022-10-30T09:46:19.924Z,100.00
2022-10-30T09:49:00.887Z,100.00
2022-10-30T09:51:58.803Z,98.33
2022-10-30T09:54:38.411Z,99.74
2022-10-30T09:57:15.958Z,99.70
2022-10-30T09:59:55.948Z,98.83
2022-10-30T10:02:34.872Z,98.13
2022-10-30T10:05:14.461Z,96.74
2022-10-30T10:08:07.630Z,97.51
2022-10-30T10:11:02.035Z,94.16
2022-10-30T10:13:34.925Z,93.12
2022-10-30T10:16:11.854Z,91.59
2022-10-30T10:18:46.024Z,91.53
2022-10-30T10:21:19.709Z,89.01
2022-10-30T10:23:49.474Z,86.70
2022-10-30T10:26:29.369Z,86.85
2022-10-30T10:29:16.657Z,87.99
2022-10-30T10:31:55.458Z,87.78
2022-10-30T10:34:36.900Z,85.14
2022-10-30T10:37:16.703Z,84.15
2022-10-30T10:39:58.584Z,83.80
2022-10-30T10:42:36.564Z,82.41
2022-10-30T10:45:21.945Z,81.80
2022-10-30T10:50:50.812Z,80.68
2022-10-30T10:53:25.648Z,77.53
2022-10-30T10:55:58.139Z,74.68
2022-10-30T10:58:31.426Z,75.39
2022-10-30T11:01:00.265Z,74.11
2022-10-30T11:03:46.895Z,72.49
2022-10-30T11:06:21.454Z,71.85
2022-10-30T11:08:53.381Z,70.08
2022-10-30T11:11:21.308Z,65.16
2022-10-30T11:13:50.624Z,59.34
2022-10-30T11:16:29.018Z,54.92
2022-10-30T11:19:00.841Z,50.53
2022-10-30T11:21:32.455Z,48.62
2022-10-30T11:24:01.599Z,48.13
2022-10-30T11:26:33.376Z,51.64
2022-10-30T11:29:07.593Z,57.03
2022-10-30T11:31:38.649Z,59.40
2022-10-30T11:34:25.868Z,60.46
2022-10-30T11:36:55.362Z,62.08
2022-10-30T11:39:26.053Z,61.34
2022-10-30T11:42:00.672Z,61.42
2022-10-30T11:44:34.725Z,62.17
2022-10-30T11:47:03.340Z,62.14
2022-10-30T11:49:41.796Z,62.42
2022-10-30T11:52:10.789Z,62.76
2022-10-30T11:54:44.762Z,61.61
2022-10-30T11:57:22.139Z,60.84
2022-10-30T11:59:52.520Z,59.82
2022-10-30T12:02:28.160Z,59.22
2022-10-30T12:04:57.073Z,57.91
2022-10-30T12:07:32.198Z,56.06
2022-10-30T12:10:02.277Z,49.95
2022-10-30T12:12:33.700Z,47.12
2022-10-30T12:15:11.671Z,45.62
2022-10-30T12:17:40.891Z,43.97
2022-10-30T12:20:14.939Z,42.70
2022-10-30T12:22:42.839Z,41.64
2022-10-30T12:25:24.266Z,38.67
2022-10-30T12:27:59.454Z,38.10
2022-10-30T12:30:29.862Z,40.14
2022-10-30T12:33:03.548Z,40.53
2022-10-30T12:35:40.299Z,41.50
2022-10-30T12:38:18.957Z,39.82
2022-10-30T12:41:01.227Z,39.63
2022-10-30T12:43:30.091Z,38.83
2022-10-30T12:46:08.483Z,39.21
2022-10-30T12:48:43.507Z,39.78
2022-10-30T12:51:24.244Z,41.57
2022-10-30T12:54:00.849Z,42.07
2022-10-30T12:56:36.280Z,43.87
2022-10-30T12:59:26.622Z,47.56
2022-10-30T13:02:00.154Z,51.14
2022-10-30T13:04:32.172Z,52.38
2022-10-30T13:07:06.940Z,53.38
2022-10-30T13:09:41.732Z,53.40
2022-10-30T13:12:15.629Z,53.22
2022-10-30T13:14:45.748Z,53.20
2022-10-30T13:17:14.770Z,53.50
2022-10-30T13:19:46.902Z,54.06
2022-10-30T13:22:26.967Z,54.48
2022-10-30T13:25:03.926Z,55.10
2022-10-30T13:27:44.448Z,54.91
2022-10-30T13:30:15.487Z,55.45
2022-10-30T13:33:01.469Z,56.06
2022-10-30T13:35:36.883Z,56.88
2022-10-30T13:38:21.470Z,56.58
2022-10-30T13:40:57.073Z,56.27
2022-10-30T13:43:32.694Z,56.51
2022-10-30T13:46:25.144Z,57.02
2022-10-30T13:49:10.658Z,56.46
2022-10-30T13:51:43.353Z,57.80
2022-10-30T13:54:19.905Z,57.32
2022-10-30T13:56:49.101Z,57.32
2022-10-30T13:59:43.581Z,57.62
2022-10-30T14:02:15.702Z,57.86
2022-10-30T14:04:53.951Z,57.71
2022-10-30T14:07:33.746Z,58.40
2022-10-30T14:10:11.071Z,58.06
2022-10-30T14:12:52.778Z,58.15
2022-10-30T14:15:32.619Z,58.75
2022-10-30T14:18:28.843Z,59.66
2022-10-30T14:20:58.598Z,59.90
2022-10-30T14:23:33.492Z,59.69
2022-10-30T14:26:15.456Z,60.42
2022-10-30T14:28:45.383Z,61.54
2022-10-30T14:31:17.596Z,61.05
2022-10-30T14:33:50.861Z,60.97
2022-10-30T14:36:22.519Z,60.54
2022-10-30T14:38:56.014Z,60.95
2022-10-30T14:41:42.055Z,60.55
2022-10-30T14:44:22.346Z,61.67
2022-10-30T14:47:06.499Z,62.31
2022-10-30T14:49:51.335Z,62.56
2022-10-30T14:52:30.261Z,63.52
2022-10-30T14:55:23.219Z,62.11
2022-10-30T14:57:54.490Z,62.70
2022-10-30T15:00:42.635Z,63.32
2022-10-30T15:03:19.310Z,63.56
2022-10-30T15:05:53.350Z,64.44
2022-10-30T15:08:49.999Z,67.48
2022-10-30T15:11:28.054Z,68.88
2022-10-30T15:14:00.160Z,67.07
2022-10-30T15:16:30.053Z,67.86
2022-10-30T15:19:03.757Z,66.96
2022-10-30T15:21:34.325Z,68.43
2022-10-30T15:24:02.764Z,69.03
2022-10-30T15:26:37.231Z,71.63
2022-10-30T15:29:08.364Z,74.35
2022-10-30T15:31:36.402Z,74.50
2022-10-30T15:34:22.060Z,76.56
2022-10-30T15:36:50.091Z,77.33
2022-10-30T15:39:19.936Z,79.08
2022-10-30T15:41:50.725Z,81.15
2022-10-30T15:44:22.485Z,82.26
2022-10-30T15:46:53.133Z,84.22
2022-10-30T15:49:32.331Z,85.24
2022-10-30T15:52:02.198Z,85.32
2022-10-30T15:54:32.729Z,88.34
2022-10-30T15:59:54.345Z,87.92
2022-10-30T16:02:24.790Z,91.71
2022-10-30T16:04:54.885Z,93.54
2022-10-30T16:07:24.484Z,93.72
2022-10-30T16:10:01.430Z,93.60
2022-10-30T16:12:32.146Z,94.83
2022-10-30T16:15:06.997Z,96.08
2022-10-30T16:17:35.677Z,97.74
2022-10-30T16:20:06.124Z,98.24
2022-10-30T16:22:37.692Z,100.00
2022-10-30T16:25:08.872Z,100.00
2022-10-30T16:27:44.999Z,100.00
2022-10-30T16:30:17.179Z,100.00
2022-10-30T16:32:52.491Z,100.00
2022-10-30T16:35:24.265Z,100.00
2022-10-30T16:37:53.138Z,100.00
2022-10-30T16:40:26.991Z,100.00
2022-10-30T16:42:58.318Z,100.00
2022-10-30T16:45:50.126Z,100.00
2022-10-30T16:48:27.952Z,100.00
2022-10-30T16:51:02.770Z,100.00
2022-10-30T16:53:32.456Z,100.00
2022-10-30T16:56:01.161Z,100.00
2022-10-30T16:58:31.789Z,100.00
2022-10-30T17:01:05.957Z,100.00
2022-10-30T17:03:38.919Z,100.00
2022-10-30T17:06:27.281Z,100.00
2022-10-30T17:08:59.874Z,100.00
2022-10-30T17:11:43.587Z,100.00
2022-10-30T17:14:19.959Z,100.00
2022-10-30T17:16:56.111Z,100.00
2022-10-30T17:19:47.971Z,100.00
2022-10-30T17:22:21.335Z,100.00
2022-10-30T17:24:50.370Z,100.00
2022-10-30T17:27:47.363Z,100.00
2022-10-30T17:30:35.777Z,100.00
2022-10-30T17:33:23.233Z,100.00
2022-10-30T17:35:52.012Z,100.00
2022-10-30T17:38:22.041Z,100.00
2022-10-30T17:40:51.127Z,100.00
2022-10-30T17:43:19.612Z,100.00
2022-10-30T17:45:48.400Z,100.00
2022-10-30T17:48:18.176Z,100.00
2022-10-30T17:50:47.986Z,100.00
2022-10-30T17:53:18.680Z,100.00
2022-10-30T18:00:12.378Z,100.00
2022-10-30T18:02:41.936Z,100.00
2022-10-30T18:05:16.789Z,100.00
2022-10-30T18:07:46.433Z,100.00
2022-10-30T18:10:15.883Z,100.00
2022-10-30T18:12:45.778Z,100.00
2022-10-30T18:15:26.643Z,100.00
2022-10-30T18:17:54.921Z,100.00
2022-10-30T18:20:23.314Z,100.00
2022-10-30T18:22:51.317Z,100.00
2022-10-30T18:25:23.415Z,100.00
2022-10-30T18:27:53.020Z,100.00
2022-10-30T18:30:21.363Z,100.00
2022-10-30T18:32:51.201Z,100.00
2022-10-30T18:35:29.896Z,100.00
2022-10-30T18:37:58.496Z,100.00
2022-10-30T18:40:27.131Z,100.00
2022-10-30T18:42:59.025Z,100.00
2022-10-30T18:45:29.070Z,100.00
2022-10-30T18:47:58.893Z,100.00
2022-10-30T18:50:30.325Z,100.00
2022-10-30T18:53:02.052Z,100.00
2022-10-30T18:55:35.547Z,100.00
2022-10-30T18:58:05.692Z,100.00
2022-10-30T19:00:45.017Z,100.00
2022-10-30T19:03:22.844Z,100.00
2022-10-30T19:05:52.196Z,100.00
2022-10-30T19:08:20.208Z,100.00
2022-10-30T19:10:48.595Z,100.00
2022-10-30T19:13:20.928Z,100.00
2022-10-30T19:15:52.180Z,100.00
2022-10-30T19:18:25.783Z,100.00
2022-10-30T19:21:15.577Z,100.00
2022-10-30T19:23:42.281Z,100.00
2022-10-30T19:28:41.109Z,100.00
2022-10-30T19:31:12.304Z,100.00
2022-10-30T19:33:40.263Z,100.00
2022-10-30T19:36:23.575Z,100.00
2022-10-30T19:38:51.544Z,100.00
2022-10-30T19:41:19.637Z,100.00
2022-10-30T19:43:48.970Z,100.00
2022-10-30T19:46:16.971Z,100.00
2022-10-30T19:48:57.264Z,100.00
2022-10-30T19:51:26.526Z,100.00
2022-10-30T19:53:55.578Z,100.00
2022-10-30T19:56:23.503Z,100.00
2022-10-30T19:58:52.854Z,100.00
2022-10-30T20:01:21.064Z,100.00
2022-10-30T20:03:49.206Z,100.00
2022-10-30T20:06:17.164Z,100.00
2022-10-30T20:08:45.132Z,100.00
2022-10-30T20:11:13.094Z,100.00
2022-10-30T20:13:41.223Z,100.00
2022-10-30T20:16:12.162Z,100.00
2022-10-30T20:18:40.128Z,100.00
2022-10-30T20:21:12.575Z,100.00
2022-10-30T20:23:46.173Z,100.00
2022-10-30T20:26:24.150Z,100.00
2022-10-30T20:28:53.672Z,100.00
2022-10-30T20:31:23.327Z,100.00
2022-10-30T20:33:51.368Z,100.00
2022-10-30T20:36:19.354Z,100.00
2022-10-30T20:38:47.503Z,100.00
2022-10-30T20:41:22.364Z,100.00
2022-10-30T20:43:51.108Z,100.00
2022-10-30T20:46:19.947Z,100.00
2022-10-30T20:48:49.513Z,100.00
2022-10-30T20:51:17.518Z,100.00
2022-10-30T20:53:45.471Z,100.00
2022-10-30T20:56:13.423Z,100.00
2022-10-30T20:58:41.603Z,100.00
2022-10-30T21:01:10.800Z,100.00
2022-10-30T21:03:38.887Z,100.00
2022-10-30T21:06:09.748Z,100.00
2022-10-30T21:08:38.098Z,100.00
2022-10-30T21:11:08.039Z,100.00
2022-10-30T21:13:36.244Z,100.00
2022-10-30T21:16:07.109Z,100.00
2022-10-30T21:18:34.991Z,100.00
2022-10-30T21:21:03.561Z,100.00
2022-10-30T21:23:32.879Z,100.00
2022-10-30T21:26:00.852Z,100.00
2022-10-30T21:28:30.080Z,100.00
2022-10-30T21:31:07.646Z,100.00
2022-10-30T21:33:40.646Z,100.00
2022-10-30T21:36:13.333Z,100.00
2022-10-30T21:38:55.060Z,100.00
2022-10-30T21:41:26.260Z,100.00
2022-10-30T21:44:18.368Z,100.00
2022-10-30T21:47:00.469Z,100.00
2022-10-30T21:50:39.933Z,100.00
2022-10-30T21:53:21.438Z,100.00
2022-10-30T21:55:55.692Z,100.00
2022-10-30T21:58:25.815Z,100.00
2022-10-30T22:00:53.832Z,100.00
2022-10-30T22:03:23.086Z,100.00
2022-10-30T22:06:42.698Z,100.00
2022-10-30T22:09:11.434Z,100.00
2022-10-30T22:11:46.538Z,100.00
2022-10-30T22:14:27.296Z,100.00
2022-10-30T22:17:10.722Z,100.00
2022-10-30T22:19:38.823Z,100.00
2022-10-30T22:22:08.073Z,100.00
2022-10-30T22:24:36.174Z,100.00
2022-10-30T22:27:07.534Z,100.00
2022-10-30T22:29:38.107Z,100.00
2022-10-30T22:32:06.379Z,100.00
2022-10-30T22:34:36.973Z,100.00
2022-10-30T22:37:05.187Z,100.00
2022-10-30T22:39:33.194Z,100.00
2022-10-30T22:42:01.105Z,100.00
2022-10-30T22:44:31.916Z,100.00
2022-10-30T22:46:59.925Z,100.00
2022-10-30T22:50:01.969Z,100.00
2022-10-30T22:52:31.109Z,100.00
2022-10-30T22:55:03.675Z,100.00
2022-10-30T22:57:33.807Z,100.00
2022-10-30T23:00:08.800Z,100.00
2022-10-30T23:02:36.583Z,100.00
2022-10-30T23:05:04.724Z,100.00
2022-10-30T23:07:32.441Z,100.00
2022-10-30T23:10:03.087Z,100.00
2022-10-30T23:12:31.253Z,100.00
2022-10-30T23:14:59.476Z,100.00
2022-10-30T23:17:31.051Z,100.00
2022-10-30T23:20:01.488Z,100.00
2022-10-30T23:22:30.352Z,100.00
2022-10-30T23:25:03.568Z,100.00
2022-10-30T23:27:31.956Z,100.00
2022-10-30T23:30:00.089Z,100.00
2022-10-30T23:32:29.536Z,100.00
2022-10-30T23:34:57.450Z,100.00
2022-10-30T23:37:25.507Z,100.00
2022-10-30T23:39:54.416Z,100.00
2022-10-30T23:42:22.475Z,100.00
2022-10-30T23:44:53.366Z,100.00
2022-10-30T23:47:21.341Z,100.00
2022-10-30T23:49:50.625Z,100.00
2022-10-30T23:52:18.613Z,100.00
2022-10-30T23:54:46.822Z,100.00
2022-10-30T23:57:16.358Z,100.00
2022-10-30T23:59:50.026Z,100.00
